Time;durP1;ratioP1;P1;durP2;ratioP2;P2;SDS_P1;SDS_P2;PMS_P1;PMS_P2;Temp;Humidity;BMP_temperature;BMP_pressure;BME280_temperature;BME280_humidity;BME280_pressure;Samples;Min_cycle;Max_cycle;Signal;HPM_P1;HPM_P2
2022/03/26 00:01:14;;;;;;;;;;;;;;;11.32;nan;101672.91;5011997;28;20315;-71
2022/03/26 00:03:39;;;;;;;;;;;;;;;11.25;nan;101686.66;5007586;28;19917;-71
2022/03/26 00:06:06;;;;;;;;;;;;;;;11.30;nan;101674.81;5000658;28;20020;-71
2022/03/26 00:08:31;;;;;;;;;;;;;;;11.25;nan;101675.25;5004392;28;19917;-71
2022/03/26 00:10:56;;;;;;;;;;;;;;;11.17;nan;101680.31;5004331;28;19918;-70
2022/03/26 00:13:21;;;;;;;;;;;;;;;11.10;nan;101674.69;5005985;28;19921;-71
2022/03/26 00:15:46;;;;;;;;;;;;;;;11.08;nan;101673.13;5003706;28;19917;-71
2022/03/26 00:18:11;;;;;;;;;;;;;;;11.08;nan;101673.13;5011869;28;19925;-70
2022/03/26 00:20:37;;;;;;;;;;;;;;;11.04;nan;101669.91;5010979;28;19917;-71
2022/03/26 00:23:03;;;;;;;;;;;;;;;11.07;nan;101672.31;5010457;28;19964;-71
2022/03/26 00:25:28;;;;;;;;;;;;;;;11.03;nan;101668.22;5011464;28;19949;-71
2022/03/26 00:27:53;;;;;;;;;;;;;;;10.95;nan;101671.50;5004609;28;19921;-70
2022/03/26 00:30:18;;;;;;;;;;;;;;;10.87;nan;101667.78;5006964;28;19918;-71
2022/03/26 00:32:44;;;;;;;;;;;;;;;10.81;nan;101680.56;5010923;28;19952;-70
2022/03/26 00:35:09;;;;;;;;;;;;;;;10.76;nan;101677.47;5012415;28;19955;-71
2022/03/26 00:37:34;;;;;;;;;;;;;;;10.78;nan;101680.81;5010851;28;19952;-70
2022/03/26 00:39:59;;;;;;;;;;;;;;;10.74;nan;101681.19;5010457;28;19925;-71
2022/03/26 00:42:25;;;;;;;;;;;;;;;10.71;nan;101681.44;5008929;28;19925;-71
2022/03/26 00:44:50;;;;;;;;;;;;;;;10.63;nan;101688.19;5005853;28;19925;-71
2022/03/26 00:47:15;;;;;;;;;;;;;;;10.61;nan;101678.72;5011048;28;20286;-71
2022/03/26 00:49:40;;;;;;;;;;;;;;;10.58;nan;101685.09;4999189;28;19918;-71
2022/03/26 00:52:05;;;;;;;;;;;;;;;10.55;nan;101680.03;5010347;28;19917;-71
2022/03/26 00:54:32;;;;;;;;;;;;;;;10.55;nan;101679.19;5009804;28;19917;-70
2022/03/26 00:56:57;;;;;;;;;;;;;;;10.49;nan;101674.41;5003825;28;20354;-71
2022/03/26 00:59:23;;;;;;;;;;;;;;;10.46;nan;101678.13;4995284;28;19928;-71
2022/03/26 01:01:48;;;;;;;;;;;;;;;10.59;nan;101685.94;5007835;28;19948;-72
2022/03/26 01:04:13;;;;;;;;;;;;;;;10.62;nan;101668.00;5010481;28;19918;-71
2022/03/26 01:06:38;;;;;;;;;;;;;;;10.51;nan;101664.53;5010935;28;19991;-71
2022/03/26 01:09:04;;;;;;;;;;;;;;;10.48;nan;101670.06;5010468;28;19917;-71
2022/03/26 01:11:29;;;;;;;;;;;;;;;10.56;nan;101673.78;5010047;28;19917;-71
2022/03/26 01:13:56;;;;;;;;;;;;;;;10.55;nan;101668.63;5000309;28;20294;-71
2022/03/26 01:16:22;;;;;;;;;;;;;;;10.51;nan;101664.53;5005760;28;19925;-70
2022/03/26 01:18:49;;;;;;;;;;;;;;;10.50;nan;101661.03;5009899;28;19921;-70
2022/03/26 01:21:14;;;;;;;;;;;;;;;10.39;nan;101655.78;5008759;28;19917;-70
2022/03/26 01:23:39;;;;;;;;;;;;;;;10.38;nan;101660.22;5010123;28;19979;-71
2022/03/26 01:26:05;;;;;;;;;;;;;;;10.31;nan;101663.50;5010881;28;20366;-70
2022/03/26 01:28:30;;;;;;;;;;;;;;;10.21;nan;101661.53;5011984;28;19924;-70
2022/03/26 01:30:56;;;;;;;;;;;;;;;10.16;nan;101657.59;5010491;28;20534;-71
2022/03/26 01:33:21;;;;;;;;;;;;;;;10.09;nan;101653.75;5011656;28;20378;-70
2022/03/26 01:35:46;;;;;;;;;;;;;;;10.04;nan;101653.28;5003114;28;19917;-71
2022/03/26 01:38:12;;;;;;;;;;;;;;;10.00;nan;101650.00;5008394;28;19917;-71
2022/03/26 01:40:37;;;;;;;;;;;;;;;9.95;nan;101650.38;5010257;28;20417;-71
2022/03/26 01:43:03;;;;;;;;;;;;;;;9.90;nan;101649.91;5010266;28;20441;-70
2022/03/26 01:45:29;;;;;;;;;;;;;;;9.85;nan;101648.59;5010115;28;19921;-71
2022/03/26 01:47:55;;;;;;;;;;;;;;;9.79;nan;101650.72;5009884;28;19925;-70
2022/03/26 01:50:21;;;;;;;;;;;;;;;9.78;nan;101648.22;5009417;28;20013;-71
2022/03/26 01:52:46;;;;;;;;;;;;;;;9.73;nan;101645.94;5003148;28;20079;-70
2022/03/26 01:55:11;;;;;;;;;;;;;;;9.75;nan;101640.53;5010567;28;19918;-70
2022/03/26 01:57:37;;;;;;;;;;;;;;;9.69;nan;101646.28;5005776;28;19944;-71
2022/03/26 02:00:04;;;;;;;;;;;;;;;9.56;nan;101647.22;5004287;28;20333;-71
2022/03/26 02:02:29;;;;;;;;;;;;;;;9.51;nan;101659.94;5011442;28;19963;-70
2022/03/26 02:04:54;;;;;;;;;;;;;;;9.43;nan;101659.69;5007824;28;19909;-71
2022/03/26 02:07:19;;;;;;;;;;;;;;;9.43;nan;101664.13;5006955;28;19914;-70
2022/03/26 02:09:45;;;;;;;;;;;;;;;9.41;nan;101672.16;5011427;28;20282;-70
2022/03/26 02:12:22;;;;;;;;;;;;;;;9.32;nan;101672.88;5010717;28;20374;-70
2022/03/26 02:14:47;;;;;;;;;;;;;;;9.11;nan;101678.78;5003697;28;19913;-70
2022/03/26 02:17:12;;;;;;;;;;;;;;;9.07;nan;101677.31;5007691;28;20411;-70
2022/03/26 02:19:38;;;;;;;;;;;;;;;9.11;nan;101676.13;5009785;28;19921;-70
2022/03/26 02:22:03;;;;;;;;;;;;;;;9.24;nan;101678.69;5009711;28;20637;-70
2022/03/26 02:24:28;;;;;;;;;;;;;;;9.29;nan;101679.19;5008758;28;19913;-70
2022/03/26 02:26:54;;;;;;;;;;;;;;;9.30;nan;101674.78;5003144;28;19967;-70
2022/03/26 02:29:20;;;;;;;;;;;;;;;9.22;nan;101675.31;5009115;28;20403;-71
2022/03/26 02:31:45;;;;;;;;;;;;;;;9.16;nan;101677.59;5008929;28;20008;-70
2022/03/26 02:34:10;;;;;;;;;;;;;;;9.13;nan;101671.59;5009266;28;20040;-70
2022/03/26 02:36:35;;;;;;;;;;;;;;;9.11;nan;101684.06;5009589;28;19914;-70
2022/03/26 02:39:01;;;;;;;;;;;;;;;9.18;nan;101683.63;5004622;28;19917;-70
2022/03/26 02:41:26;;;;;;;;;;;;;;;9.16;nan;101674.97;5016080;28;19963;-70
2022/03/26 02:43:51;;;;;;;;;;;;;;;9.11;nan;101675.31;5013921;28;19979;-71
2022/03/26 02:46:17;;;;;;;;;;;;;;;9.05;nan;101667.81;4990721;28;19918;-70
2022/03/26 02:48:44;;;;;;;;;;;;;;;9.06;nan;101669.53;5017144;28;19921;-71
2022/03/26 02:51:09;;;;;;;;;;;;;;;8.99;nan;101666.50;5004925;28;19918;-70
2022/03/26 02:53:34;;;;;;;;;;;;;;;8.89;nan;101657.56;5011331;28;19921;-71
2022/03/26 02:55:59;;;;;;;;;;;;;;;8.86;nan;101670.97;5013054;28;19913;-70
2022/03/26 02:58:25;;;;;;;;;;;;;;;8.81;nan;101666.03;5016470;28;20374;-70
2022/03/26 03:00:50;;;;;;;;;;;;;;;8.70;nan;101663.38;5012563;28;19972;-71
2022/03/26 03:03:16;;;;;;;;;;;;;;;8.65;nan;101670.75;5011993;28;20056;-70
2022/03/26 03:05:42;;;;;;;;;;;;;;;8.57;nan;101659.94;5012050;28;19917;-70
2022/03/26 03:08:08;;;;;;;;;;;;;;;8.34;nan;101662.38;5012331;28;20428;-71
2022/03/26 03:10:33;;;;;;;;;;;;;;;8.25;nan;101663.03;5013233;28;20370;-71
2022/03/26 03:12:59;;;;;;;;;;;;;;;8.11;nan;101660.53;5011347;28;19928;-70
2022/03/26 03:15:24;;;;;;;;;;;;;;;8.03;nan;101659.28;5012408;28;19924;-71
2022/03/26 03:17:50;;;;;;;;;;;;;;;7.98;nan;101658.75;5012577;28;19924;-70
2022/03/26 03:20:16;;;;;;;;;;;;;;;7.88;nan;101655.91;5011786;28;20152;-70
2022/03/26 03:22:41;;;;;;;;;;;;;;;7.90;nan;101647.06;5005687;28;19922;-70
2022/03/26 03:25:07;;;;;;;;;;;;;;;7.85;nan;101656.13;4994748;28;19956;-71
2022/03/26 03:27:32;;;;;;;;;;;;;;;7.80;nan;101655.63;5015144;28;19963;-70
2022/03/26 03:29:58;;;;;;;;;;;;;;;7.77;nan;101649.69;5011360;28;19913;-71
2022/03/26 03:32:23;;;;;;;;;;;;;;;7.79;nan;101659.19;5005665;28;19929;-71
2022/03/26 03:34:48;;;;;;;;;;;;;;;7.81;nan;101662.56;5012438;28;19917;-70
2022/03/26 03:37:13;;;;;;;;;;;;;;;7.75;nan;101652.47;5012160;28;19917;-70
2022/03/26 03:39:38;;;;;;;;;;;;;;;7.69;nan;101652.88;5011962;28;20390;-71
2022/03/26 03:42:04;;;;;;;;;;;;;;;7.70;nan;101656.34;5008743;28;19913;-71
2022/03/26 03:44:30;;;;;;;;;;;;;;;7.63;nan;101653.31;5006240;28;20306;-71
2022/03/26 03:46:55;;;;;;;;;;;;;;;7.67;nan;101654.75;5011964;28;19926;-70
2022/03/26 03:49:20;;;;;;;;;;;;;;;7.66;nan;101659.19;5015555;28;19925;-70
2022/03/26 03:51:45;;;;;;;;;;;;;;;7.63;nan;101661.22;5009904;28;19925;-70
2022/03/26 03:54:11;;;;;;;;;;;;;;;7.61;nan;101655.19;5010585;28;19925;-70
2022/03/26 03:56:36;;;;;;;;;;;;;;;7.59;nan;101654.47;5011694;28;19925;-71
2022/03/26 03:59:02;;;;;;;;;;;;;;;7.53;nan;101655.72;5010166;28;20374;-71
2022/03/26 04:01:27;;;;;;;;;;;;;;;7.53;nan;101655.72;5011224;28;19943;-70
2022/03/26 04:03:52;;;;;;;;;;;;;;;7.61;nan;101655.19;5005132;28;19922;-71
2022/03/26 04:06:17;;;;;;;;;;;;;;;7.58;nan;101660.66;5000664;28;20362;-70
2022/03/26 04:08:43;;;;;;;;;;;;;;;7.59;nan;101664.97;5011401;28;19928;-71
2022/03/26 04:11:08;;;;;;;;;;;;;;;7.57;nan;101667.72;5010359;28;19921;-71
2022/03/26 04:13:33;;;;;;;;;;;;;;;7.50;nan;101681.41;5008978;28;19933;-70
2022/03/26 04:15:58;;;;;;;;;;;;;;;7.48;nan;101678.03;4992982;28;19937;-71
2022/03/26 04:18:24;;;;;;;;;;;;;;;7.44;nan;101672.97;5008933;28;20298;-70
2022/03/26 04:20:50;;;;;;;;;;;;;;;7.37;nan;101679.59;5017345;28;19957;-71
2022/03/26 04:23:15;;;;;;;;;;;;;;;7.35;nan;101685.91;5014478;28;20397;-71
2022/03/26 04:25:41;;;;;;;;;;;;;;;7.27;nan;101689.06;5011087;28;19917;-70
2022/03/26 04:28:06;;;;;;;;;;;;;;;7.29;nan;101691.56;5014117;28;20304;-71
2022/03/26 04:30:31;;;;;;;;;;;;;;;7.31;nan;101687.88;4994705;28;20152;-71
2022/03/26 04:32:57;;;;;;;;;;;;;;;7.34;nan;101692.97;5007511;28;19964;-71
2022/03/26 04:35:22;;;;;;;;;;;;;;;7.38;nan;101691.78;5011594;28;19970;-70
2022/03/26 04:37:47;;;;;;;;;;;;;;;7.39;nan;101688.22;5014542;28;20143;-71
2022/03/26 04:40:14;;;;;;;;;;;;;;;7.37;nan;101691.91;5011041;28;19921;-70
2022/03/26 04:42:43;;;;;;;;;;;;;;;7.33;nan;101683.38;5010665;28;19923;-70
2022/03/26 04:45:09;;;;;;;;;;;;;;;7.25;nan;101685.69;5005945;28;19917;-71
2022/03/26 04:47:34;;;;;;;;;;;;;;;7.15;nan;101689.84;5006458;28;19975;-71
2022/03/26 04:50:00;;;;;;;;;;;;;;;7.04;nan;101689.72;5014009;28;19956;-71
2022/03/26 04:52:25;;;;;;;;;;;;;;;6.90;nan;101686.19;5002762;28;20016;-70
2022/03/26 04:54:51;;;;;;;;;;;;;;;6.76;nan;101694.13;5017696;28;19944;-71
2022/03/26 04:57:18;;;;;;;;;;;;;;;6.63;nan;101698.50;5008756;28;20399;-70
2022/03/26 04:59:43;;;;;;;;;;;;;;;6.48;nan;101706.38;5010107;28;19921;-68
2022/03/26 05:02:08;;;;;;;;;;;;;;;6.36;nan;101707.13;5016305;28;20301;-70
2022/03/26 05:04:34;;;;;;;;;;;;;;;6.25;nan;101707.00;5004853;28;19918;-71
2022/03/26 05:06:59;;;;;;;;;;;;;;;6.14;nan;101713.72;5006614;28;19924;-70
2022/03/26 05:09:24;;;;;;;;;;;;;;;6.05;nan;101703.78;5009864;28;20394;-70
2022/03/26 05:11:49;;;;;;;;;;;;;;;5.98;nan;101705.09;5010595;28;19963;-71
2022/03/26 05:14:14;;;;;;;;;;;;;;;5.90;nan;101709.94;5006497;28;19988;-70
2022/03/26 05:16:40;;;;;;;;;;;;;;;5.78;nan;101708.06;5008946;28;20021;-71
2022/03/26 05:19:05;;;;;;;;;;;;;;;5.66;nan;101709.63;5011052;28;19924;-70
2022/03/26 05:21:31;;;;;;;;;;;;;;;5.54;nan;101713.81;5009870;28;19917;-71
2022/03/26 05:23:56;;;;;;;;;;;;;;;5.46;nan;101718.69;5011049;28;19965;-70
2022/03/26 05:26:22;;;;;;;;;;;;;;;5.37;nan;101717.41;5009615;28;19925;-70
2022/03/26 05:28:48;;;;;;;;;;;;;;;5.26;nan;101714.56;5020374;28;20348;-70
2022/03/26 05:31:13;;;;;;;;;;;;;;;5.22;nan;101718.28;5012586;28;19940;-71
2022/03/26 05:33:38;;;;;;;;;;;;;;;5.18;nan;101722.88;5002775;28;19921;-71
2022/03/26 05:36:04;;;;;;;;;;;;;;;5.16;nan;101726.53;5010385;28;19941;-70
2022/03/26 05:38:31;;;;;;;;;;;;;;;5.15;nan;101724.81;5009516;28;19917;-70
2022/03/26 05:40:56;;;;;;;;;;;;;;;5.15;nan;101725.69;5013909;28;20392;-71
2022/03/26 05:43:21;;;;;;;;;;;;;;;5.13;nan;101727.53;5021248;28;19917;-71
2022/03/26 05:45:47;;;;;;;;;;;;;;;5.07;nan;101726.09;5010598;28;19980;-70
2022/03/26 05:48:12;;;;;;;;;;;;;;;5.08;nan;101733.03;5016771;28;19964;-70
2022/03/26 05:50:37;;;;;;;;;;;;;;;5.08;nan;101732.19;5021292;28;20286;-71
2022/03/26 05:53:03;;;;;;;;;;;;;;;5.07;nan;101731.34;5008668;28;19931;-71
2022/03/26 05:55:28;;;;;;;;;;;;;;;5.11;nan;101742.50;5010309;28;19918;-70
2022/03/26 05:57:53;;;;;;;;;;;;;;;5.13;nan;101740.66;5005088;28;20430;-70
2022/03/26 06:00:18;;;;;;;;;;;;;;;5.14;nan;101741.50;5001662;28;20259;-71
2022/03/26 06:02:44;;;;;;;;;;;;;;;5.19;nan;101748.16;5009823;28;19929;-70
2022/03/26 06:05:09;;;;;;;;;;;;;;;5.31;nan;101744.84;5004728;28;20013;-71
2022/03/26 06:07:34;;;;;;;;;;;;;;;5.62;nan;101750.94;5008764;28;20364;-70
2022/03/26 06:09:59;;;;;;;;;;;;;;;6.00;nan;101744.38;5010128;28;19971;-71
2022/03/26 06:12:25;;;;;;;;;;;;;;;6.40;nan;101750.69;5008991;28;19929;-71
2022/03/26 06:14:50;;;;;;;;;;;;;;;6.96;nan;101753.31;5013871;28;19925;-71
2022/03/26 06:17:15;;;;;;;;;;;;;;;7.41;nan;101757.41;5009774;28;19926;-71
2022/03/26 06:19:44;;;;;;;;;;;;;;;7.79;nan;101761.03;5025395;28;19917;-71
2022/03/26 06:22:09;;;;;;;;;;;;;;;8.23;nan;101757.16;5006054;28;20347;-71
2022/03/26 06:24:35;;;;;;;;;;;;;;;8.63;nan;101760.53;5004291;28;20004;-71
2022/03/26 06:27:01;;;;;;;;;;;;;;;9.03;nan;101762.91;5003110;28;19963;-71
2022/03/26 06:29:26;;;;;;;;;;;;;;;9.36;nan;101759.59;5006305;28;19918;-72
2022/03/26 06:31:52;;;;;;;;;;;;;;;9.64;nan;101767.28;4998377;28;20012;-71
2022/03/26 06:34:17;;;;;;;;;;;;;;;10.09;nan;101757.66;5009555;28;19924;-72
2022/03/26 06:36:42;;;;;;;;;;;;;;;10.58;nan;101766.22;5011352;28;19922;-71
2022/03/26 06:39:08;;;;;;;;;;;;;;;11.03;nan;101760.84;4996346;28;19921;-71
2022/03/26 06:41:38;;;;;;;;;;;;;;;11.41;nan;101755.06;4993670;28;19917;-71
2022/03/26 06:44:04;;;;;;;;;;;;;;;11.79;nan;101764.28;5008523;28;19924;-71
2022/03/26 06:46:29;;;;;;;;;;;;;;;11.99;nan;101765.28;5008978;28;19917;-71
2022/03/26 06:48:54;;;;;;;;;;;;;;;12.32;nan;101758.91;5012887;28;20274;-71
2022/03/26 06:51:20;;;;;;;;;;;;;;;12.52;nan;101767.75;5010121;28;19913;-71
2022/03/26 06:53:46;;;;;;;;;;;;;;;12.52;nan;101769.59;5007133;28;19928;-71
2022/03/26 06:56:11;;;;;;;;;;;;;;;12.80;nan;101769.78;5008857;28;19917;-71
2022/03/26 06:58:36;;;;;;;;;;;;;;;13.09;nan;101764.56;5005613;28;19921;-71
2022/03/26 07:01:02;;;;;;;;;;;;;;;13.17;nan;101773.50;5001848;28;19917;-70
2022/03/26 07:03:27;;;;;;;;;;;;;;;13.53;nan;101778.31;5009290;28;19957;-72
2022/03/26 07:05:53;;;;;;;;;;;;;;;13.85;nan;101775.34;5009237;28;19972;-71
2022/03/26 07:08:18;;;;;;;;;;;;;;;14.22;nan;101786.00;5008458;28;20282;-71
2022/03/26 07:10:45;;;;;;;;;;;;;;;14.59;nan;101784.41;5009673;28;19917;-70
2022/03/26 07:13:14;;;;;;;;;;;;;;;14.93;nan;101773.97;5007005;28;19921;-71
2022/03/26 07:15:39;;;;;;;;;;;;;;;15.47;nan;101782.00;5008710;28;19959;-71
2022/03/26 07:18:05;;;;;;;;;;;;;;;16.01;nan;101785.44;5008781;28;20405;-71
2022/03/26 07:20:30;;;;;;;;;;;;;;;16.48;nan;101778.88;5008722;28;19917;-71
2022/03/26 07:22:55;;;;;;;;;;;;;;;16.55;nan;101786.06;5003464;28;19952;-71
2022/03/26 07:25:20;;;;;;;;;;;;;;;16.58;nan;101778.75;4997230;28;19918;-71
2022/03/26 07:27:46;;;;;;;;;;;;;;;17.10;nan;101790.13;5001550;28;19913;-71
2022/03/26 07:30:11;;;;;;;;;;;;;;;17.35;nan;101790.16;5022499;28;20076;-72
2022/03/26 07:32:36;;;;;;;;;;;;;;;17.49;nan;101794.03;5008830;28;19929;-71
2022/03/26 07:35:02;;;;;;;;;;;;;;;17.60;nan;101788.34;5011672;28;19918;-70
2022/03/26 07:37:27;;;;;;;;;;;;;;;17.91;nan;101788.53;5013066;28;19924;-70
2022/03/26 07:39:53;;;;;;;;;;;;;;;17.74;nan;101789.53;5011864;28;19995;-70
2022/03/26 07:42:18;;;;;;;;;;;;;;;17.95;nan;101786.38;5009534;28;19951;-71
2022/03/26 07:44:43;;;;;;;;;;;;;;;18.01;nan;101789.19;4996168;28;20608;-70
2022/03/26 07:47:09;;;;;;;;;;;;;;;18.23;nan;101795.69;5012586;28;19941;-70
2022/03/26 07:49:34;;;;;;;;;;;;;;;18.60;nan;101793.38;5022364;28;19917;-70
2022/03/26 07:51:59;;;;;;;;;;;;;;;18.94;nan;101795.75;4992872;28;20371;-70
2022/03/26 07:54:25;;;;;;;;;;;;;;;19.07;nan;101798.69;5009859;28;20345;-70
2022/03/26 07:56:50;;;;;;;;;;;;;;;19.14;nan;101793.47;5007443;28;20008;-70
2022/03/26 07:59:15;;;;;;;;;;;;;;;18.92;nan;101795.09;5000117;28;19921;-70
2022/03/26 08:01:41;;;;;;;;;;;;;;;18.88;nan;101797.28;4999136;28;19925;-70
2022/03/26 08:04:06;;;;;;;;;;;;;;;18.95;nan;101792.06;4999681;28;19943;-70
2022/03/26 08:06:31;;;;;;;;;;;;;;;19.26;nan;101794.72;5012829;28;19921;-70
2022/03/26 08:08:56;;;;;;;;;;;;;;;19.44;nan;101798.94;5010874;28;19917;-70
2022/03/26 08:11:21;;;;;;;;;;;;;;;19.27;nan;101806.28;5009291;28;19918;-70
2022/03/26 08:13:47;;;;;;;;;;;;;;;19.24;nan;101799.44;5000544;28;20051;-70
2022/03/26 08:16:12;;;;;;;;;;;;;;;19.47;nan;101803.94;5012225;28;20291;-70
2022/03/26 08:18:37;;;;;;;;;;;;;;;19.79;nan;101808.25;5011276;28;20386;-70
2022/03/26 08:21:03;;;;;;;;;;;;;;;20.30;nan;101808.41;4997809;28;20011;-70
2022/03/26 08:23:28;;;;;;;;;;;;;;;20.47;nan;101810.91;5002772;28;20001;-70
2022/03/26 08:28:37;;;;;;;;;;;;;;;20.76;nan;101813.63;5002757;28;19924;-70
2022/03/26 08:31:03;;;;;;;;;;;;;;;20.79;nan;101812.41;5011838;28;19921;-70
2022/03/26 08:33:28;;;;;;;;;;;;;;;20.86;nan;101818.72;5011743;28;20425;-70
2022/03/26 08:35:53;;;;;;;;;;;;;;;20.69;nan;101818.09;5005788;28;19980;-70
2022/03/26 08:38:19;;;;;;;;;;;;;;;21.31;nan;101816.75;4991854;28;19948;-70
2022/03/26 08:40:44;;;;;;;;;;;;;;;21.70;nan;101815.47;5009300;28;19917;-70
2022/03/26 08:43:10;;;;;;;;;;;;;;;22.50;nan;101812.50;5006649;28;20261;-70
2022/03/26 08:45:35;;;;;;;;;;;;;;;22.64;nan;101815.09;5010785;28;20400;-70
2022/03/26 08:48:00;;;;;;;;;;;;;;;22.22;nan;101818.78;5001252;28;20433;-70
2022/03/26 08:50:25;;;;;;;;;;;;;;;22.35;nan;101818.03;5003682;28;19918;-71
2022/03/26 08:52:51;;;;;;;;;;;;;;;22.82;nan;101819.94;5009602;28;20016;-70
2022/03/26 08:55:17;;;;;;;;;;;;;;;23.03;nan;101815.47;5007207;28;19917;-71
2022/03/26 08:57:43;;;;;;;;;;;;;;;23.82;nan;101820.19;5008703;28;20410;-70
2022/03/26 09:00:09;;;;;;;;;;;;;;;24.12;nan;101822.44;5018367;28;19917;-70
2022/03/26 09:02:34;;;;;;;;;;;;;;;23.66;nan;101820.56;5015140;28;20321;-70
2022/03/26 09:05:00;;;;;;;;;;;;;;;23.31;nan;101818.88;5008282;28;19933;-70
2022/03/26 09:07:25;;;;;;;;;;;;;;;23.72;nan;101817.88;5001889;28;19924;-70
2022/03/26 09:09:50;;;;;;;;;;;;;;;23.53;nan;101822.22;5011135;28;19917;-70
2022/03/26 09:12:15;;;;;;;;;;;;;;;23.67;nan;101822.25;5010048;28;19924;-70
2022/03/26 09:14:40;;;;;;;;;;;;;;;23.48;nan;101824.72;5011114;28;19917;-70
2022/03/26 09:17:06;;;;;;;;;;;;;;;24.13;nan;101824.94;5007593;28;19925;-70
2022/03/26 09:19:31;;;;;;;;;;;;;;;24.41;nan;101821.16;5003286;28;19940;-70
2022/03/26 09:21:56;;;;;;;;;;;;;;;24.12;nan;101819.72;4998830;28;19918;-70
2022/03/26 09:24:23;;;;;;;;;;;;;;;24.29;nan;101820.97;5003775;28;19928;-70
2022/03/26 09:26:48;;;;;;;;;;;;;;;24.63;nan;101820.91;5009020;28;19928;-70
2022/03/26 09:29:13;;;;;;;;;;;;;;;24.72;nan;101825.03;5010631;28;19913;-70
2022/03/26 09:31:38;;;;;;;;;;;;;;;24.94;nan;101825.53;5002229;28;19953;-70
2022/03/26 09:34:03;;;;;;;;;;;;;;;25.83;nan;101821.81;4979783;28;20048;-70
2022/03/26 09:36:29;;;;;;;;;;;;;;;26.58;nan;101820.09;5009740;28;19943;-70
2022/03/26 09:38:54;;;;;;;;;;;;;;;27.34;nan;101821.41;4992680;28;19925;-70
2022/03/26 09:41:22;;;;;;;;;;;;;;;27.81;nan;101829.59;5007657;28;19921;-70
2022/03/26 09:43:47;;;;;;;;;;;;;;;28.35;nan;101814.00;5009392;28;19960;-70
2022/03/26 09:46:13;;;;;;;;;;;;;;;28.93;nan;101825.81;5009059;28;20395;-70
2022/03/26 09:48:38;;;;;;;;;;;;;;;29.24;nan;101820.16;5015245;28;19962;-70
2022/03/26 09:51:04;;;;;;;;;;;;;;;30.10;nan;101823.44;5016293;28;19917;-70
2022/03/26 09:53:29;;;;;;;;;;;;;;;30.18;nan;101819.50;5007716;28;19917;-70
2022/03/26 09:55:55;;;;;;;;;;;;;;;29.32;nan;101812.41;5005576;28;19928;-70
2022/03/26 09:58:20;;;;;;;;;;;;;;;29.81;nan;101818.13;5008775;28;19913;-70
2022/03/26 10:00:45;;;;;;;;;;;;;;;29.39;nan;101813.06;5004080;28;19918;-70
2022/03/26 10:03:10;;;;;;;;;;;;;;;29.18;nan;101819.25;4997920;28;20016;-71
2022/03/26 10:05:35;;;;;;;;;;;;;;;29.53;nan;101815.47;5009961;28;19917;-70
2022/03/26 10:08:19;;;;;;;;;;;;;;;29.80;nan;101805.56;5003229;28;19959;-71
2022/03/26 10:10:45;;;;;;;;;;;;;;;30.90;nan;101797.47;5007605;28;20302;-70
2022/03/26 10:13:10;;;;;;;;;;;;;;;31.13;nan;101795.53;5010205;28;19928;-71
2022/03/26 10:15:35;;;;;;;;;;;;;;;29.84;nan;101801.28;5009480;28;20009;-71
2022/03/26 10:18:10;;;;;;;;;;;;;;;28.98;nan;101795.13;5010089;28;19917;-70
2022/03/26 10:20:35;;;;;;;;;;;;;;;27.80;nan;101776.31;5010668;28;20287;-70
2022/03/26 10:23:01;;;;;;;;;;;;;;;28.76;nan;101792.28;5008678;28;19958;-70
2022/03/26 10:25:26;;;;;;;;;;;;;;;28.24;nan;101786.81;5007456;28;20341;-70
2022/03/26 10:27:52;;;;;;;;;;;;;;;27.73;nan;101787.31;5004738;28;19924;-69
2022/03/26 10:32:38;;;;;;;;;;;;;;;27.81;nan;101788.84;5003525;28;19917;-70
2022/03/26 10:33:17;;;;;;;;;;;;;;;28.22;nan;101789.81;4998195;28;19928;-70
2022/03/26 10:35:51;;;;;;;;;;;;;;;28.01;nan;101790.38;5002158;28;19924;-71
2022/03/26 10:38:16;;;;;;;;;;;;;;;27.23;nan;101793.13;5003534;28;19924;-70
2022/03/26 10:40:42;;;;;;;;;;;;;;;27.38;nan;101800.84;5003570;28;19968;-70
2022/03/26 10:43:09;;;;;;;;;;;;;;;26.71;nan;101794.69;5009369;28;19922;-75
2022/03/26 10:45:45;;;;;;;;;;;;;;;27.44;nan;101790.94;5010063;28;19959;-68
2022/03/26 10:48:11;;;;;;;;;;;;;;;27.71;nan;101789.44;5007607;28;19921;-68
2022/03/26 10:50:36;;;;;;;;;;;;;;;28.49;nan;101792.03;5003022;28;19925;-69
2022/03/26 10:53:06;;;;;;;;;;;;;;;28.32;nan;101786.47;4999027;28;19921;-69
2022/03/26 10:55:31;;;;;;;;;;;;;;;28.54;nan;101789.41;5009638;28;19958;-70
2022/03/26 10:57:57;;;;;;;;;;;;;;;29.06;nan;101794.75;5006155;28;20327;-69
2022/03/26 11:00:22;;;;;;;;;;;;;;;29.37;nan;101800.78;5005197;28;20008;-69
2022/03/26 11:02:48;;;;;;;;;;;;;;;28.87;nan;101780.53;5019530;28;19925;-69
2022/03/26 11:05:13;;;;;;;;;;;;;;;29.16;nan;101799.59;5008480;28;19953;-68
2022/03/26 11:07:41;;;;;;;;;;;;;;;28.98;nan;101793.25;5002042;28;19917;-68
2022/03/26 11:10:07;;;;;;;;;;;;;;;28.82;nan;101783.16;5013766;28;19917;-69
2022/03/26 11:12:33;;;;;;;;;;;;;;;28.61;nan;101786.53;5007644;28;20444;-69
2022/03/26 11:15:00;;;;;;;;;;;;;;;28.80;nan;101780.66;5005988;28;19976;-69
2022/03/26 11:17:44;;;;;;;;;;;;;;;27.92;nan;101777.16;5004058;28;19917;-68
2022/03/26 11:20:17;;;;;;;;;;;;;;;28.75;nan;101782.47;4998814;28;20402;-68
2022/03/26 11:22:55;;;;;;;;;;;;;;;28.56;nan;101776.38;5006216;28;19948;-68
2022/03/26 11:25:26;;;;;;;;;;;;;;;29.35;nan;101768.31;5000536;28;19945;-69
2022/03/26 11:27:51;;;;;;;;;;;;;;;29.47;nan;101776.41;5005828;28;19960;-69
2022/03/26 11:30:16;;;;;;;;;;;;;;;29.58;nan;101769.19;5013554;28;19922;-68
2022/03/26 11:32:43;;;;;;;;;;;;;;;29.33;nan;101761.47;4998940;28;19949;-68
2022/03/26 11:35:14;;;;;;;;;;;;;;;29.74;nan;101760.22;5003834;28;19984;-69
2022/03/26 11:38:02;;;;;;;;;;;;;;;29.91;nan;101773.81;5012401;28;20398;-68
2022/03/26 11:40:46;;;;;;;;;;;;;;;30.08;nan;101757.41;5011427;28;19924;-69
2022/03/26 11:43:15;;;;;;;;;;;;;;;29.75;nan;101755.59;5013210;28;19924;-69
2022/03/26 11:51:23;;;;;;;;;;;;;;;30.58;nan;101745.50;5011231;28;19924;-69
2022/03/26 11:53:49;;;;;;;;;;;;;;;30.15;nan;101747.16;5012312;28;19918;-69
2022/03/26 11:56:20;;;;;;;;;;;;;;;28.93;nan;101743.31;5002419;28;19917;-69
2022/03/26 11:58:50;;;;;;;;;;;;;;;27.99;nan;101736.28;5000125;28;19954;-69
2022/03/26 12:01:15;;;;;;;;;;;;;;;26.03;nan;101742.25;5018833;28;20385;-69
2022/03/26 12:03:41;;;;;;;;;;;;;;;25.48;nan;101740.25;5010667;28;19956;-68
2022/03/26 12:08:50;;;;;;;;;;;;;;;24.84;nan;101735.88;5003717;28;19925;-68
2022/03/26 12:11:16;;;;;;;;;;;;;;;24.60;nan;101727.50;5005474;28;19917;-68
2022/03/26 12:13:57;;;;;;;;;;;;;;;24.02;nan;101735.56;5003283;28;19951;-68
2022/03/26 12:16:44;;;;;;;;;;;;;;;23.98;nan;101728.91;5011183;28;20294;-68
2022/03/26 12:19:09;;;;;;;;;;;;;;;23.62;nan;101722.94;5007911;28;19959;-68
2022/03/26 12:21:48;;;;;;;;;;;;;;;23.21;nan;101718.56;5007753;28;20024;-68
2022/03/26 12:24:16;;;;;;;;;;;;;;;22.77;nan;101711.84;5009245;28;19921;-68
2022/03/26 12:26:48;;;;;;;;;;;;;;;22.27;nan;101709.38;5012695;28;19917;-68
2022/03/26 12:29:14;;;;;;;;;;;;;;;21.91;nan;101706.06;5019217;28;19927;-68
2022/03/26 12:31:39;;;;;;;;;;;;;;;21.53;nan;101709.13;5010917;28;19918;-68
2022/03/26 12:34:04;;;;;;;;;;;;;;;21.21;nan;101722.91;5006300;28;19925;-68
2022/03/26 12:36:34;;;;;;;;;;;;;;;21.32;nan;101708.06;5009012;28;19921;-67
2022/03/26 12:39:00;;;;;;;;;;;;;;;21.26;nan;101708.88;5010842;28;20434;-68
2022/03/26 12:41:25;;;;;;;;;;;;;;;21.18;nan;101699.06;4995630;28;20005;-68
2022/03/26 12:43:57;;;;;;;;;;;;;;;21.06;nan;101697.09;4995297;28;19913;-68
2022/03/26 12:46:30;;;;;;;;;;;;;;;21.04;nan;101683.81;5010103;28;19924;-68
2022/03/26 12:48:55;;;;;;;;;;;;;;;20.64;nan;101690.66;5011359;28;19917;-68
2022/03/26 12:51:22;;;;;;;;;;;;;;;20.51;nan;101699.38;5012228;28;19921;-68
2022/03/26 12:53:48;;;;;;;;;;;;;;;20.40;nan;101689.94;5009991;28;20008;-68
2022/03/26 12:56:14;;;;;;;;;;;;;;;20.08;nan;101691.19;4996783;28;20252;-68
2022/03/26 12:58:58;;;;;;;;;;;;;;;20.12;nan;101689.81;5006519;28;20194;-67
2022/03/26 13:01:24;;;;;;;;;;;;;;;20.08;nan;101688.50;5009803;28;19921;-68
2022/03/26 13:03:49;;;;;;;;;;;;;;;20.02;nan;101681.19;5007537;28;19925;-68
2022/03/26 13:06:17;;;;;;;;;;;;;;;20.21;nan;101677.91;5004034;28;19918;-69